Time;durP1;ratioP1;P1;durP2;ratioP2;P2;SDS_P1;SDS_P2;PMS_P1;PMS_P2;Temp;Humidity;BMP_temperature;BMP_pressure;BME280_temperature;BME280_humidity;BME280_pressure;Samples;Min_cycle;Max_cycle;Signal;HPM_P1;HPM_P2
2022/12/16 00:04:47;;;;;;;90.83;50.43;;;-7.30;99.90;;;;;;10327804;28;20229;-86
2022/12/16 00:09:49;;;;;;;103.03;58.90;;;-7.00;99.90;;;;;;10327010;28;20221;-86
2022/12/16 00:14:53;;;;;;;96.10;54.17;;;-7.00;99.90;;;;;;10309941;28;20725;-87
2022/12/16 00:19:56;;;;;;;103.50;57.60;;;-7.20;99.90;;;;;;10326373;28;20621;-86
2022/12/16 00:24:58;;;;;;;102.57;54.77;;;-6.70;99.90;;;;;;10326734;28;20570;-86
2022/12/16 00:30:01;;;;;;;111.80;58.97;;;-6.80;99.90;;;;;;10326845;28;20288;-87
2022/12/16 00:35:03;;;;;;;97.40;55.37;;;-6.70;99.90;;;;;;10327590;28;20309;-86
2022/12/16 00:40:06;;;;;;;106.57;57.60;;;-6.80;99.90;;;;;;10330331;28;20930;-86
2022/12/16 00:45:10;;;;;;;104.57;57.23;;;-6.80;99.90;;;;;;10333629;28;20244;-86
2022/12/16 00:50:12;;;;;;;92.07;51.37;;;-6.60;99.90;;;;;;10334165;28;20281;-87
2022/12/16 00:55:16;;;;;;;103.27;57.70;;;-6.40;99.90;;;;;;10316523;28;20258;-87
2022/12/16 01:00:22;;;;;;;95.73;55.10;;;-6.20;99.90;;;;;;10332948;28;20199;-87
2022/12/16 01:05:25;;;;;;;94.73;52.77;;;-6.30;99.90;;;;;;10332869;28;20319;-87
2022/12/16 01:10:28;;;;;;;100.10;56.47;;;-6.30;99.90;;;;;;10314352;28;20233;-87
2022/12/16 01:15:30;;;;;;;100.63;54.97;;;-5.60;99.90;;;;;;10316026;28;20293;-87
2022/12/16 01:20:33;;;;;;;103.93;57.27;;;-6.10;99.90;;;;;;10332585;28;20269;-87
2022/12/16 01:25:35;;;;;;;105.53;54.93;;;-5.90;99.90;;;;;;10331462;28;20310;-87
2022/12/16 01:30:38;;;;;;;109.33;58.57;;;-5.40;99.90;;;;;;10331386;28;20682;-85
2022/12/16 01:35:42;;;;;;;100.37;56.40;;;-5.80;99.90;;;;;;10313231;28;20213;-87
2022/12/16 01:40:57;;;;;;;95.40;54.83;;;-5.90;99.90;;;;;;10331465;28;20311;-87
2022/12/16 01:46:23;;;;;;;100.93;53.63;;;-5.80;99.90;;;;;;10318916;28;20264;-87
2022/12/16 01:51:38;;;;;;;98.83;55.60;;;-5.70;99.90;;;;;;10313482;28;20319;-87
2022/12/16 01:56:45;;;;;;;112.80;60.57;;;-5.80;99.90;;;;;;10329583;28;20768;-87
2022/12/16 02:01:48;;;;;;;109.33;59.97;;;-6.00;99.90;;;;;;10313906;28;20262;-87
2022/12/16 02:06:50;;;;;;;104.57;55.93;;;-6.20;99.90;;;;;;10330904;28;20262;-86
2022/12/16 02:12:24;;;;;;;105.73;59.10;;;-5.90;99.90;;;;;;10312446;28;20262;-86
2022/12/16 02:17:31;;;;;;;123.00;65.27;;;-5.70;99.90;;;;;;10313485;28;20289;-86
2022/12/16 02:22:45;;;;;;;124.47;64.43;;;-5.70;99.90;;;;;;10330027;28;20363;-86
2022/12/16 02:27:54;;;;;;;111.70;61.73;;;-5.80;99.90;;;;;;10313690;28;20600;-86
2022/12/16 02:33:21;;;;;;;112.07;60.00;;;-5.90;99.90;;;;;;10328201;28;20259;-86
2022/12/16 02:38:31;;;;;;;111.03;60.50;;;-5.50;99.90;;;;;;10328143;28;20244;-86
2022/12/16 02:43:55;;;;;;;113.37;64.70;;;-5.50;99.90;;;;;;10311168;28;20242;-86
2022/12/16 02:49:28;;;;;;;108.83;59.63;;;-5.30;99.90;;;;;;10309240;28;20318;-87
2022/12/16 02:54:30;;;;;;;113.90;64.17;;;-5.20;99.90;;;;;;10307804;28;20257;-86
2022/12/16 02:59:36;;;;;;;116.93;63.80;;;-4.70;99.90;;;;;;10310229;28;20237;-87
2022/12/16 03:04:55;;;;;;;114.23;63.80;;;-4.80;99.90;;;;;;10311960;28;20603;-87
2022/12/16 03:09:58;;;;;;;111.97;60.00;;;-2.80;99.90;;;;;;10328587;28;20761;-86
2022/12/16 03:15:02;;;;;;;125.33;66.37;;;-3.80;99.90;;;;;;10328263;28;20699;-86
2022/12/16 03:20:14;;;;;;;123.93;65.40;;;-3.90;99.90;;;;;;10328176;28;20224;-86
2022/12/16 03:25:19;;;;;;;83.50;43.57;;;-4.10;99.90;;;;;;10327839;28;20232;-86
2022/12/16 03:30:29;;;;;;;123.33;65.93;;;-2.80;99.90;;;;;;10310523;28;20213;-86
2022/12/16 03:35:39;;;;;;;125.67;65.67;;;-2.10;99.90;;;;;;10327849;28;20253;-86
2022/12/16 03:40:43;;;;;;;132.33;67.87;;;-3.50;99.90;;;;;;10327897;28;20302;-86
2022/12/16 03:45:51;;;;;;;118.80;66.53;;;-4.10;99.90;;;;;;10310507;28;20238;-86
2022/12/16 03:50:54;;;;;;;123.17;62.70;;;-4.10;99.90;;;;;;10327506;28;20236;-86
2022/12/16 03:55:56;;;;;;;123.97;66.03;;;-4.00;99.90;;;;;;10327673;28;20296;-86
2022/12/16 04:00:59;;;;;;;122.37;67.17;;;-3.90;99.90;;;;;;10327009;28;20681;-86
2022/12/16 04:06:02;;;;;;;118.73;66.10;;;-4.20;99.90;;;;;;10326810;28;20241;-86
2022/12/16 04:27:26;;;;;;;109.87;61.87;;;-4.30;99.90;;;;;;10334230;28;20303;-86
2022/12/16 04:34:24;;;;;;;115.33;63.10;;;-4.00;99.90;;;;;;10334884;28;20257;-86
